sensor_id;sensor_type;location;lat;lon;timestamp;temperature;humidity
59234;DHT22;60776;51.702;7.462;2023-08-20T00:00:10;21.70;99.90
59234;DHT22;60776;51.702;7.462;2023-08-20T00:02:43;21.70;99.90
59234;DHT22;60776;51.702;7.462;2023-08-20T00:05:11;21.70;99.90
59234;DHT22;60776;51.702;7.462;2023-08-20T00:07:37;21.70;99.90
59234;DHT22;60776;51.702;7.462;2023-08-20T00:10:12;21.60;99.90
59234;DHT22;60776;51.702;7.462;2023-08-20T00:12:38;21.60;99.90
59234;DHT22;60776;51.702;7.462;2023-08-20T00:15:04;21.50;99.90
59234;DHT22;60776;51.702;7.462;2023-08-20T00:17:35;21.50;99.90
59234;DHT22;60776;51.702;7.462;2023-08-20T00:20:01;21.50;99.90
59234;DHT22;60776;51.702;7.462;2023-08-20T00:22:36;21.50;99.90
59234;DHT22;60776;51.702;7.462;2023-08-20T00:25:04;21.50;99.90
59234;DHT22;60776;51.702;7.462;2023-08-20T00:27:31;21.40;99.90
59234;DHT22;60776;51.702;7.462;2023-08-20T00:29:56;21.40;99.90
59234;DHT22;60776;51.702;7.462;2023-08-20T00:32:22;21.40;99.90
59234;DHT22;60776;51.702;7.462;2023-08-20T00:34:50;21.40;99.90
59234;DHT22;60776;51.702;7.462;2023-08-20T00:37:16;21.40;99.90
59234;DHT22;60776;51.702;7.462;2023-08-20T00:39:41;21.40;99.90
59234;DHT22;60776;51.702;7.462;2023-08-20T00:42:07;21.40;99.90
59234;DHT22;60776;51.702;7.462;2023-08-20T00:44:33;21.30;99.90
59234;DHT22;60776;51.702;7.462;2023-08-20T00:47:02;21.40;99.90
59234;DHT22;60776;51.702;7.462;2023-08-20T00:49:31;21.40;99.90
59234;DHT22;60776;51.702;7.462;2023-08-20T00:52:09;21.30;99.90
59234;DHT22;60776;51.702;7.462;2023-08-20T00:54:35;21.30;99.90
59234;DHT22;60776;51.702;7.462;2023-08-20T00:57:07;21.40;99.90
59234;DHT22;60776;51.702;7.462;2023-08-20T00:59:43;21.30;99.90
59234;DHT22;60776;51.702;7.462;2023-08-20T01:02:12;21.30;99.90
59234;DHT22;60776;51.702;7.462;2023-08-20T01:04:47;21.30;99.90
59234;DHT22;60776;51.702;7.462;2023-08-20T01:12:26;21.20;99.90
59234;DHT22;60776;51.702;7.462;2023-08-20T01:14:51;21.10;99.90
59234;DHT22;60776;51.702;7.462;2023-08-20T01:17:19;21.10;99.90
59234;DHT22;60776;51.702;7.462;2023-08-20T01:19:45;21.10;99.90
59234;DHT22;60776;51.702;7.462;2023-08-20T01:25:00;21.00;99.90
59234;DHT22;60776;51.702;7.462;2023-08-20T01:30:14;20.90;99.90
59234;DHT22;60776;51.702;7.462;2023-08-20T01:32:41;20.80;99.90
59234;DHT22;60776;51.702;7.462;2023-08-20T01:35:14;20.80;99.90
59234;DHT22;60776;51.702;7.462;2023-08-20T01:37:41;20.90;99.90
59234;DHT22;60776;51.702;7.462;2023-08-20T01:40:08;20.80;99.90
59234;DHT22;60776;51.702;7.462;2023-08-20T01:42:36;20.80;99.90
59234;DHT22;60776;51.702;7.462;2023-08-20T01:45:09;20.80;99.90
59234;DHT22;60776;51.702;7.462;2023-08-20T01:47:38;20.80;99.90
59234;DHT22;60776;51.702;7.462;2023-08-20T01:50:04;20.80;99.90
59234;DHT22;60776;51.702;7.462;2023-08-20T01:52:30;20.80;99.90
59234;DHT22;60776;51.702;7.462;2023-08-20T01:54:56;20.80;99.90
59234;DHT22;60776;51.702;7.462;2023-08-20T01:57:21;20.80;99.90
59234;DHT22;60776;51.702;7.462;2023-08-20T01:59:47;20.70;99.90
59234;DHT22;60776;51.702;7.462;2023-08-20T02:02:13;20.60;99.90
59234;DHT22;60776;51.702;7.462;2023-08-20T02:04:41;20.60;99.90
59234;DHT22;60776;51.702;7.462;2023-08-20T02:07:06;20.60;99.90
59234;DHT22;60776;51.702;7.462;2023-08-20T02:09:32;20.60;99.90
59234;DHT22;60776;51.702;7.462;2023-08-20T02:11:58;20.60;99.90
59234;DHT22;60776;51.702;7.462;2023-08-20T02:14:23;20.60;99.90
59234;DHT22;60776;51.702;7.462;2023-08-20T02:16:49;20.60;99.90
59234;DHT22;60776;51.702;7.462;2023-08-20T02:19:29;20.60;99.90
59234;DHT22;60776;51.702;7.462;2023-08-20T02:21:57;20.50;99.90
59234;DHT22;60776;51.702;7.462;2023-08-20T02:24:25;20.50;99.90
59234;DHT22;60776;51.702;7.462;2023-08-20T02:26:50;20.50;99.90
59234;DHT22;60776;51.702;7.462;2023-08-20T02:29:16;20.50;99.90
59234;DHT22;60776;51.702;7.462;2023-08-20T02:31:44;20.50;99.90
59234;DHT22;60776;51.702;7.462;2023-08-20T02:34:12;20.50;99.90
59234;DHT22;60776;51.702;7.462;2023-08-20T02:36:38;20.50;99.90
59234;DHT22;60776;51.702;7.462;2023-08-20T02:39:06;20.50;99.90
59234;DHT22;60776;51.702;7.462;2023-08-20T02:41:36;20.50;99.90
59234;DHT22;60776;51.702;7.462;2023-08-20T02:44:02;20.50;99.90
59234;DHT22;60776;51.702;7.462;2023-08-20T02:46:28;20.40;99.90
59234;DHT22;60776;51.702;7.462;2023-08-20T02:48:57;20.40;99.90
59234;DHT22;60776;51.702;7.462;2023-08-20T02:51:25;20.40;99.90
59234;DHT22;60776;51.702;7.462;2023-08-20T02:53:53;20.40;99.90
59234;DHT22;60776;51.702;7.462;2023-08-20T02:56:18;20.40;99.90
59234;DHT22;60776;51.702;7.462;2023-08-20T02:58:46;20.40;99.90
59234;DHT22;60776;51.702;7.462;2023-08-20T03:01:22;20.50;99.90
59234;DHT22;60776;51.702;7.462;2023-08-20T03:03:51;20.40;99.90
59234;DHT22;60776;51.702;7.462;2023-08-20T03:06:16;20.50;99.90
59234;DHT22;60776;51.702;7.462;2023-08-20T03:08:42;20.50;99.90
59234;DHT22;60776;51.702;7.462;2023-08-20T03:11:08;20.60;99.90
59234;DHT22;60776;51.702;7.462;2023-08-20T03:13:33;20.50;99.90
59234;DHT22;60776;51.702;7.462;2023-08-20T03:15:59;20.50;99.90
59234;DHT22;60776;51.702;7.462;2023-08-20T03:18:24;20.40;99.90
59234;DHT22;60776;51.702;7.462;2023-08-20T03:20:50;20.40;99.90
59234;DHT22;60776;51.702;7.462;2023-08-20T03:23:16;20.40;99.90
59234;DHT22;60776;51.702;7.462;2023-08-20T03:25:41;20.30;99.90
59234;DHT22;60776;51.702;7.462;2023-08-20T03:28:07;20.30;99.90
59234;DHT22;60776;51.702;7.462;2023-08-20T03:30:35;20.30;99.90
59234;DHT22;60776;51.702;7.462;2023-08-20T03:33:03;20.30;99.90
59234;DHT22;60776;51.702;7.462;2023-08-20T03:35:29;20.30;99.90
59234;DHT22;60776;51.702;7.462;2023-08-20T03:37:55;20.30;99.90
59234;DHT22;60776;51.702;7.462;2023-08-20T03:40:20;20.40;99.90
59234;DHT22;60776;51.702;7.462;2023-08-20T03:42:48;20.40;99.90
59234;DHT22;60776;51.702;7.462;2023-08-20T03:45:14;20.50;99.90
59234;DHT22;60776;51.702;7.462;2023-08-20T03:47:39;20.50;99.90
59234;DHT22;60776;51.702;7.462;2023-08-20T03:50:12;20.60;99.90
59234;DHT22;60776;51.702;7.462;2023-08-20T03:52:40;20.70;99.90
59234;DHT22;60776;51.702;7.462;2023-08-20T03:55:06;20.70;99.90
59234;DHT22;60776;51.702;7.462;2023-08-20T03:57:32;20.80;99.90
59234;DHT22;60776;51.702;7.462;2023-08-20T03:59:58;20.80;99.90
59234;DHT22;60776;51.702;7.462;2023-08-20T04:02:23;20.70;99.90
59234;DHT22;60776;51.702;7.462;2023-08-20T04:04:49;20.60;99.90
59234;DHT22;60776;51.702;7.462;2023-08-20T04:07:15;20.50;99.90
59234;DHT22;60776;51.702;7.462;2023-08-20T04:09:40;20.60;99.90
59234;DHT22;60776;51.702;7.462;2023-08-20T04:12:08;20.50;99.90
59234;DHT22;60776;51.702;7.462;2023-08-20T04:14:34;20.50;99.90
59234;DHT22;60776;51.702;7.462;2023-08-20T04:16:59;20.50;99.90
59234;DHT22;60776;51.702;7.462;2023-08-20T04:19:34;20.50;99.90
59234;DHT22;60776;51.702;7.462;2023-08-20T04:22:08;20.50;99.90
59234;DHT22;60776;51.702;7.462;2023-08-20T04:24:33;20.60;99.90
59234;DHT22;60776;51.702;7.462;2023-08-20T04:26:59;20.50;99.90
59234;DHT22;60776;51.702;7.462;2023-08-20T04:29:24;20.60;99.90
59234;DHT22;60776;51.702;7.462;2023-08-20T04:31:50;20.60;99.90
59234;DHT22;60776;51.702;7.462;2023-08-20T04:34:16;20.60;99.90
59234;DHT22;60776;51.702;7.462;2023-08-20T04:36:41;20.70;99.90
59234;DHT22;60776;51.702;7.462;2023-08-20T04:39:07;20.80;99.90
59234;DHT22;60776;51.702;7.462;2023-08-20T04:41:32;20.90;99.90
59234;DHT22;60776;51.702;7.462;2023-08-20T04:44:01;21.00;99.90
59234;DHT22;60776;51.702;7.462;2023-08-20T04:46:26;21.10;99.90
59234;DHT22;60776;51.702;7.462;2023-08-20T04:48:53;21.10;99.90
59234;DHT22;60776;51.702;7.462;2023-08-20T04:51:19;21.20;99.90
59234;DHT22;60776;51.702;7.462;2023-08-20T04:53:45;21.40;99.90
59234;DHT22;60776;51.702;7.462;2023-08-20T04:56:12;21.50;99.90
59234;DHT22;60776;51.702;7.462;2023-08-20T04:58:41;21.60;99.90
59234;DHT22;60776;51.702;7.462;2023-08-20T05:01:14;21.70;99.90
59234;DHT22;60776;51.702;7.462;2023-08-20T05:03:39;21.90;99.90
59234;DHT22;60776;51.702;7.462;2023-08-20T05:06:05;22.00;99.90
59234;DHT22;60776;51.702;7.462;2023-08-20T05:08:31;22.20;99.90
59234;DHT22;60776;51.702;7.462;2023-08-20T05:10:56;22.30;99.90
59234;DHT22;60776;51.702;7.462;2023-08-20T05:13:22;22.40;99.90
59234;DHT22;60776;51.702;7.462;2023-08-20T05:15:49;22.40;99.90
59234;DHT22;60776;51.702;7.462;2023-08-20T05:18:15;22.40;99.90
59234;DHT22;60776;51.702;7.462;2023-08-20T05:20:40;22.40;99.90
59234;DHT22;60776;51.702;7.462;2023-08-20T05:23:07;22.50;99.90
59234;DHT22;60776;51.702;7.462;2023-08-20T05:25:32;22.60;99.90
59234;DHT22;60776;51.702;7.462;2023-08-20T05:27:58;22.70;99.90
59234;DHT22;60776;51.702;7.462;2023-08-20T05:30:25;22.70;99.90
59234;DHT22;60776;51.702;7.462;2023-08-20T05:32:51;22.80;99.90
59234;DHT22;60776;51.702;7.462;2023-08-20T05:35:17;22.80;99.90
59234;DHT22;60776;51.702;7.462;2023-08-20T05:37:45;22.80;99.90
59234;DHT22;60776;51.702;7.462;2023-08-20T05:40:10;22.80;99.90
59234;DHT22;60776;51.702;7.462;2023-08-20T05:42:36;22.80;99.90
59234;DHT22;60776;51.702;7.462;2023-08-20T05:45:02;22.70;99.90
59234;DHT22;60776;51.702;7.462;2023-08-20T05:47:28;22.70;99.90
59234;DHT22;60776;51.702;7.462;2023-08-20T05:49:53;22.60;99.90
59234;DHT22;60776;51.702;7.462;2023-08-20T05:52:19;22.60;99.90
59234;DHT22;60776;51.702;7.462;2023-08-20T05:54:45;22.60;99.90
59234;DHT22;60776;51.702;7.462;2023-08-20T05:57:10;22.50;99.90
59234;DHT22;60776;51.702;7.462;2023-08-20T05:59:41;22.50;99.90
59234;DHT22;60776;51.702;7.462;2023-08-20T06:02:06;22.60;99.90
59234;DHT22;60776;51.702;7.462;2023-08-20T06:04:32;22.70;99.90
59234;DHT22;60776;51.702;7.462;2023-08-20T06:07:00;22.70;99.90
59234;DHT22;60776;51.702;7.462;2023-08-20T06:09:28;22.80;99.90
59234;DHT22;60776;51.702;7.462;2023-08-20T06:12:08;22.90;99.90
59234;DHT22;60776;51.702;7.462;2023-08-20T06:14:34;22.90;99.90
59234;DHT22;60776;51.702;7.462;2023-08-20T06:17:02;23.00;99.90
59234;DHT22;60776;51.702;7.462;2023-08-20T06:19:30;23.20;99.90
59234;DHT22;60776;51.702;7.462;2023-08-20T06:21:55;23.30;99.90
59234;DHT22;60776;51.702;7.462;2023-08-20T06:24:21;23.50;99.90
59234;DHT22;60776;51.702;7.462;2023-08-20T06:26:46;23.60;99.90
59234;DHT22;60776;51.702;7.462;2023-08-20T06:29:12;23.70;99.90
59234;DHT22;60776;51.702;7.462;2023-08-20T06:31:38;23.70;99.90
59234;DHT22;60776;51.702;7.462;2023-08-20T06:34:04;23.70;99.90
59234;DHT22;60776;51.702;7.462;2023-08-20T06:36:29;23.80;99.90
59234;DHT22;60776;51.702;7.462;2023-08-20T06:38:55;23.90;99.90
59234;DHT22;60776;51.702;7.462;2023-08-20T06:41:20;24.10;99.90
59234;DHT22;60776;51.702;7.462;2023-08-20T06:43:46;24.20;99.90
59234;DHT22;60776;51.702;7.462;2023-08-20T06:46:12;24.10;99.90
59234;DHT22;60776;51.702;7.462;2023-08-20T06:48:37;24.10;99.90
59234;DHT22;60776;51.702;7.462;2023-08-20T06:51:18;24.20;99.90
59234;DHT22;60776;51.702;7.462;2023-08-20T06:53:44;24.00;99.90
59234;DHT22;60776;51.702;7.462;2023-08-20T06:56:11;24.00;99.90
59234;DHT22;60776;51.702;7.462;2023-08-20T06:58:40;24.00;99.90
59234;DHT22;60776;51.702;7.462;2023-08-20T07:01:07;24.00;99.90
59234;DHT22;60776;51.702;7.462;2023-08-20T07:03:43;24.10;99.90
59234;DHT22;60776;51.702;7.462;2023-08-20T07:06:10;24.20;99.90
59234;DHT22;60776;51.702;7.462;2023-08-20T07:08:36;24.30;99.90
59234;DHT22;60776;51.702;7.462;2023-08-20T07:11:04;24.40;99.90
59234;DHT22;60776;51.702;7.462;2023-08-20T07:13:29;24.60;99.90
59234;DHT22;60776;51.702;7.462;2023-08-20T07:15:55;24.90;99.90
59234;DHT22;60776;51.702;7.462;2023-08-20T07:18:21;25.80;99.90
59234;DHT22;60776;51.702;7.462;2023-08-20T07:20:46;26.90;99.90
59234;DHT22;60776;51.702;7.462;2023-08-20T07:23:14;28.00;99.90
59234;DHT22;60776;51.702;7.462;2023-08-20T07:25:41;28.30;99.90
59234;DHT22;60776;51.702;7.462;2023-08-20T07:28:09;28.40;99.90
59234;DHT22;60776;51.702;7.462;2023-08-20T07:30:35;28.40;99.90
59234;DHT22;60776;51.702;7.462;2023-08-20T07:33:02;28.70;99.90
59234;DHT22;60776;51.702;7.462;2023-08-20T07:35:27;29.90;99.90
59234;DHT22;60776;51.702;7.462;2023-08-20T07:37:53;30.80;99.90
59234;DHT22;60776;51.702;7.462;2023-08-20T07:40:19;30.80;99.90
59234;DHT22;60776;51.702;7.462;2023-08-20T07:42:45;31.00;99.90
59234;DHT22;60776;51.702;7.462;2023-08-20T07:45:10;31.10;99.90
59234;DHT22;60776;51.702;7.462;2023-08-20T07:47:37;31.30;99.90
59234;DHT22;60776;51.702;7.462;2023-08-20T07:50:03;31.60;99.90
59234;DHT22;60776;51.702;7.462;2023-08-20T07:52:30;31.50;99.90
59234;DHT22;60776;51.702;7.462;2023-08-20T07:54:56;31.40;99.90
59234;DHT22;60776;51.702;7.462;2023-08-20T07:57:22;31.60;99.90
59234;DHT22;60776;51.702;7.462;2023-08-20T07:59:49;31.90;99.90
59234;DHT22;60776;51.702;7.462;2023-08-20T08:02:15;32.80;99.90
59234;DHT22;60776;51.702;7.462;2023-08-20T08:04:42;33.90;99.90
59234;DHT22;60776;51.702;7.462;2023-08-20T08:07:09;35.50;99.90
59234;DHT22;60776;51.702;7.462;2023-08-20T08:09:35;36.80;98.40
59234;DHT22;60776;51.702;7.462;2023-08-20T08:12:01;37.70;90.60
59234;DHT22;60776;51.702;7.462;2023-08-20T08:14:27;37.90;83.30
59234;DHT22;60776;51.702;7.462;2023-08-20T08:16:52;37.50;79.60
59234;DHT22;60776;51.702;7.462;2023-08-20T08:19:18;37.20;79.60
59234;DHT22;60776;51.702;7.462;2023-08-20T08:21:46;38.00;78.30
59234;DHT22;60776;51.702;7.462;2023-08-20T08:24:13;38.70;74.30
59234;DHT22;60776;51.702;7.462;2023-08-20T08:26:39;38.60;72.30
59234;DHT22;60776;51.702;7.462;2023-08-20T08:29:06;39.40;69.50
59234;DHT22;60776;51.702;7.462;2023-08-20T08:31:32;40.00;67.00
59234;DHT22;60776;51.702;7.462;2023-08-20T08:33:58;40.40;65.00
59234;DHT22;60776;51.702;7.462;2023-08-20T08:36:24;40.50;60.80
59234;DHT22;60776;51.702;7.462;2023-08-20T08:38:51;40.60;59.40
59234;DHT22;60776;51.702;7.462;2023-08-20T08:41:17;41.10;59.50
59234;DHT22;60776;51.702;7.462;2023-08-20T08:43:43;41.20;57.40
59234;DHT22;60776;51.702;7.462;2023-08-20T08:46:13;41.20;56.30
59234;DHT22;60776;51.702;7.462;2023-08-20T08:48:45;40.90;56.40
59234;DHT22;60776;51.702;7.462;2023-08-20T08:51:13;41.40;56.70
59234;DHT22;60776;51.702;7.462;2023-08-20T08:53:50;41.60;55.00
59234;DHT22;60776;51.702;7.462;2023-08-20T08:56:15;42.60;54.70
59234;DHT22;60776;51.702;7.462;2023-08-20T08:58:55;43.00;52.00
59234;DHT22;60776;51.702;7.462;2023-08-20T09:01:29;43.50;52.70
59234;DHT22;60776;51.702;7.462;2023-08-20T09:03:57;43.90;50.00
59234;DHT22;60776;51.702;7.462;2023-08-20T09:06:30;44.30;49.90
59234;DHT22;60776;51.702;7.462;2023-08-20T09:09:16;44.40;49.00
59234;DHT22;60776;51.702;7.462;2023-08-20T09:11:45;45.10;48.50
59234;DHT22;60776;51.702;7.462;2023-08-20T09:14:27;45.70;46.30
59234;DHT22;60776;51.702;7.462;2023-08-20T09:17:01;45.90;46.10
59234;DHT22;60776;51.702;7.462;2023-08-20T09:19:37;46.60;46.20
59234;DHT22;60776;51.702;7.462;2023-08-20T09:22:05;46.50;43.70
59234;DHT22;60776;51.702;7.462;2023-08-20T09:24:41;46.50;44.80
59234;DHT22;60776;51.702;7.462;2023-08-20T09:27:13;46.80;42.80
59234;DHT22;60776;51.702;7.462;2023-08-20T09:29:50;47.00;42.70
59234;DHT22;60776;51.702;7.462;2023-08-20T09:32:20;47.50;42.40
59234;DHT22;60776;51.702;7.462;2023-08-20T09:34:58;47.70;42.10
59234;DHT22;60776;51.702;7.462;2023-08-20T09:37:26;47.70;41.90
59234;DHT22;60776;51.702;7.462;2023-08-20T09:39:52;47.80;41.30
59234;DHT22;60776;51.702;7.462;2023-08-20T09:42:18;48.00;41.00
59234;DHT22;60776;51.702;7.462;2023-08-20T09:44:52;47.80;40.00
59234;DHT22;60776;51.702;7.462;2023-08-20T09:47:21;46.40;40.10
59234;DHT22;60776;51.702;7.462;2023-08-20T09:49:50;44.40;41.80
59234;DHT22;60776;51.702;7.462;2023-08-20T09:52:39;42.90;43.10
59234;DHT22;60776;51.702;7.462;2023-08-20T09:55:09;42.10;44.10
59234;DHT22;60776;51.702;7.462;2023-08-20T09:57:37;43.20;44.30
59234;DHT22;60776;51.702;7.462;2023-08-20T10:00:11;44.40;44.40
59234;DHT22;60776;51.702;7.462;2023-08-20T10:02:38;44.70;43.80
59234;DHT22;60776;51.702;7.462;2023-08-20T10:05:11;44.60;43.60
59234;DHT22;60776;51.702;7.462;2023-08-20T10:07:37;43.90;43.40
59234;DHT22;60776;51.702;7.462;2023-08-20T10:10:05;42.90;44.10
59234;DHT22;60776;51.702;7.462;2023-08-20T10:12:31;43.40;45.00
59234;DHT22;60776;51.702;7.462;2023-08-20T10:14:59;44.30;44.30
59234;DHT22;60776;51.702;7.462;2023-08-20T10:17:25;45.30;42.90
59234;DHT22;60776;51.702;7.462;2023-08-20T10:19:53;46.20;40.50
59234;DHT22;60776;51.702;7.462;2023-08-20T10:22:19;46.60;39.50
59234;DHT22;60776;51.702;7.462;2023-08-20T10:24:52;46.70;39.20
59234;DHT22;60776;51.702;7.462;2023-08-20T10:27:26;47.30;38.20
59234;DHT22;60776;51.702;7.462;2023-08-20T10:29:55;47.50;36.20
59234;DHT22;60776;51.702;7.462;2023-08-20T10:35:12;48.10;36.20
59234;DHT22;60776;51.702;7.462;2023-08-20T10:37:38;48.80;37.00
59234;DHT22;60776;51.702;7.462;2023-08-20T10:40:06;49.40;36.00
59234;DHT22;60776;51.702;7.462;2023-08-20T10:42:32;49.10;33.80
59234;DHT22;60776;51.702;7.462;2023-08-20T10:45:09;48.70;35.00
59234;DHT22;60776;51.702;7.462;2023-08-20T10:47:44;48.00;35.20
59234;DHT22;60776;51.702;7.462;2023-08-20T10:50:11;47.00;35.70
59234;DHT22;60776;51.702;7.462;2023-08-20T10:52:41;45.90;36.60
59234;DHT22;60776;51.702;7.462;2023-08-20T10:55:13;44.70;37.70
59234;DHT22;60776;51.702;7.462;2023-08-20T10:57:40;43.20;39.10
59234;DHT22;60776;51.702;7.462;2023-08-20T11:00:06;42.00;40.90
59234;DHT22;60776;51.702;7.462;2023-08-20T11:02:40;42.60;42.10
59234;DHT22;60776;51.702;7.462;2023-08-20T11:05:17;44.00;41.30
59234;DHT22;60776;51.702;7.462;2023-08-20T11:07:45;45.00;39.30
59234;DHT22;60776;51.702;7.462;2023-08-20T11:10:16;46.00;38.50
59234;DHT22;60776;51.702;7.462;2023-08-20T11:12:43;46.80;38.00
59234;DHT22;60776;51.702;7.462;2023-08-20T11:15:10;47.60;36.60
59234;DHT22;60776;51.702;7.462;2023-08-20T11:17:44;48.00;36.10
59234;DHT22;60776;51.702;7.462;2023-08-20T11:20:10;48.60;35.60
59234;DHT22;60776;51.702;7.462;2023-08-20T11:22:38;48.20;35.20
59234;DHT22;60776;51.702;7.462;2023-08-20T11:25:04;46.80;35.80
59234;DHT22;60776;51.702;7.462;2023-08-20T11:27:30;46.70;36.80
59234;DHT22;60776;51.702;7.462;2023-08-20T11:29:58;47.10;37.00
59234;DHT22;60776;51.702;7.462;2023-08-20T11:32:23;48.10;36.30
59234;DHT22;60776;51.702;7.462;2023-08-20T11:34:49;48.70;34.70
59234;DHT22;60776;51.702;7.462;2023-08-20T11:37:20;49.20;34.90
59234;DHT22;60776;51.702;7.462;2023-08-20T11:39:48;49.40;34.30
59234;DHT22;60776;51.702;7.462;2023-08-20T11:42:14;49.40;34.10
59234;DHT22;60776;51.702;7.462;2023-08-20T11:44:46;48.90;34.30
59234;DHT22;60776;51.702;7.462;2023-08-20T11:47:18;47.60;34.70
59234;DHT22;60776;51.702;7.462;2023-08-20T11:49:44;45.80;36.10
59234;DHT22;60776;51.702;7.462;2023-08-20T11:52:11;44.20;36.90
59234;DHT22;60776;51.702;7.462;2023-08-20T11:54:38;43.40;38.30
59234;DHT22;60776;51.702;7.462;2023-08-20T11:57:05;42.40;38.80
59234;DHT22;60776;51.702;7.462;2023-08-20T11:59:32;41.50;39.60
59234;DHT22;60776;51.702;7.462;2023-08-20T12:01:59;41.70;40.70
59234;DHT22;60776;51.702;7.462;2023-08-20T12:04:27;42.70;39.80
59234;DHT22;60776;51.702;7.462;2023-08-20T12:07:04;42.10;38.80
59234;DHT22;60776;51.702;7.462;2023-08-20T12:09:33;41.20;40.40
59234;DHT22;60776;51.702;7.462;2023-08-20T12:11:59;40.40;41.60
59234;DHT22;60776;51.702;7.462;2023-08-20T12:14:27;39.80;42.30
59234;DHT22;60776;51.702;7.462;2023-08-20T12:16:56;39.20;43.10
59234;DHT22;60776;51.702;7.462;2023-08-20T12:19:22;38.90;43.90
59234;DHT22;60776;51.702;7.462;2023-08-20T12:21:48;39.30;44.50
59234;DHT22;60776;51.702;7.462;2023-08-20T12:24:14;40.70;44.30
59234;DHT22;60776;51.702;7.462;2023-08-20T12:26:40;42.00;42.60
59234;DHT22;60776;51.702;7.462;2023-08-20T12:29:06;42.80;41.40
59234;DHT22;60776;51.702;7.462;2023-08-20T12:31:32;43.20;39.70
59234;DHT22;60776;51.702;7.462;2023-08-20T12:33:58;42.70;38.80
59234;DHT22;60776;51.702;7.462;2023-08-20T12:36:24;41.80;39.40
59234;DHT22;60776;51.702;7.462;2023-08-20T12:38:49;41.10;40.30
59234;DHT22;60776;51.702;7.462;2023-08-20T12:41:15;40.70;41.40
59234;DHT22;60776;51.702;7.462;2023-08-20T12:43:41;40.90;41.70
59234;DHT22;60776;51.702;7.462;2023-08-20T12:46:06;41.00;41.30
59234;DHT22;60776;51.702;7.462;2023-08-20T12:48:32;41.40;41.70
59234;DHT22;60776;51.702;7.462;2023-08-20T12:50:58;42.10;41.20
59234;DHT22;60776;51.702;7.462;2023-08-20T12:53:24;42.60;40.40
59234;DHT22;60776;51.702;7.462;2023-08-20T12:55:49;43.10;40.30
59234;DHT22;60776;51.702;7.462;2023-08-20T12:58:15;43.50;39.40
59234;DHT22;60776;51.702;7.462;2023-08-20T13:00:41;44.20;39.00
59234;DHT22;60776;51.702;7.462;2023-08-20T13:03:07;44.60;37.40
59234;DHT22;60776;51.702;7.462;2023-08-20T13:05:33;43.90;37.80
59234;DHT22;60776;51.702;7.462;2023-08-20T13:07:59;43.60;38.20
59234;DHT22;60776;51.702;7.462;2023-08-20T13:10:25;43.30;38.20
59234;DHT22;60776;51.702;7.462;2023-08-20T13:12:54;42.70;38.30
59234;DHT22;60776;51.702;7.462;2023-08-20T13:15:22;42.10;38.60
59234;DHT22;60776;51.702;7.462;2023-08-20T13:17:49;41.60;39.10
59234;DHT22;60776;51.702;7.462;2023-08-20T13:20:15;41.00;39.50
59234;DHT22;60776;51.702;7.462;2023-08-20T13:22:49;40.10;40.70
59234;DHT22;60776;51.702;7.462;2023-08-20T13:25:15;39.50;41.90
59234;DHT22;60776;51.702;7.462;2023-08-20T13:27:41;38.80;42.60
59234;DHT22;60776;51.702;7.462;2023-08-20T13:30:08;38.40;43.50
59234;DHT22;60776;51.702;7.462;2023-08-20T13:32:34;37.90;44.00
59234;DHT22;60776;51.702;7.462;2023-08-20T13:35:00;37.30;44.50
59234;DHT22;60776;51.702;7.462;2023-08-20T13:37:27;37.00;45.20
59234;DHT22;60776;51.702;7.462;2023-08-20T13:39:52;36.60;46.00
59234;DHT22;60776;51.702;7.462;2023-08-20T13:42:18;36.30;46.00
59234;DHT22;60776;51.702;7.462;2023-08-20T13:44:44;36.20;46.70
59234;DHT22;60776;51.702;7.462;2023-08-20T13:47:09;36.20;46.80
59234;DHT22;60776;51.702;7.462;2023-08-20T13:49:35;36.10;47.00
59234;DHT22;60776;51.702;7.462;2023-08-20T13:52:00;36.00;47.30
59234;DHT22;60776;51.702;7.462;2023-08-20T13:54:26;35.80;47.40
59234;DHT22;60776;51.702;7.462;2023-08-20T13:56:54;35.70;48.50
59234;DHT22;60776;51.702;7.462;2023-08-20T13:59:20;35.60;48.30
59234;DHT22;60776;51.702;7.462;2023-08-20T14:01:45;35.50;48.10
59234;DHT22;60776;51.702;7.462;2023-08-20T14:04:11;35.30;48.20
59234;DHT22;60776;51.702;7.462;2023-08-20T14:06:36;35.30;48.60
59234;DHT22;60776;51.702;7.462;2023-08-20T14:09:02;35.10;48.70
59234;DHT22;60776;51.702;7.462;2023-08-20T14:11:30;34.90;48.80
59234;DHT22;60776;51.702;7.462;2023-08-20T14:13:58;34.70;49.20
59234;DHT22;60776;51.702;7.462;2023-08-20T14:16:26;34.80;49.40
59234;DHT22;60776;51.702;7.462;2023-08-20T14:18:52;34.80;50.40
59234;DHT22;60776;51.702;7.462;2023-08-20T14:21:20;34.70;49.50
59234;DHT22;60776;51.702;7.462;2023-08-20T14:23:45;34.70;49.70
59234;DHT22;60776;51.702;7.462;2023-08-20T14:26:11;34.60;49.90
59234;DHT22;60776;51.702;7.462;2023-08-20T14:28:45;34.50;50.10
59234;DHT22;60776;51.702;7.462;2023-08-20T14:31:13;34.40;50.30
59234;DHT22;60776;51.702;7.462;2023-08-20T14:33:39;34.30;50.30
59234;DHT22;60776;51.702;7.462;2023-08-20T14:36:05;34.10;50.20
59234;DHT22;60776;51.702;7.462;2023-08-20T14:38:31;34.00;50.50
59234;DHT22;60776;51.702;7.462;2023-08-20T14:41:00;34.00;50.80
59234;DHT22;60776;51.702;7.462;2023-08-20T14:43:33;33.90;50.80
59234;DHT22;60776;51.702;7.462;2023-08-20T14:46:01;33.90;51.10
59234;DHT22;60776;51.702;7.462;2023-08-20T14:48:27;34.00;50.90
59234;DHT22;60776;51.702;7.462;2023-08-20T14:50:53;34.00;51.00
59234;DHT22;60776;51.702;7.462;2023-08-20T14:53:29;34.00;50.80
59234;DHT22;60776;51.702;7.462;2023-08-20T14:55:57;34.10;50.60
59234;DHT22;60776;51.702;7.462;2023-08-20T14:58:23;34.00;50.80
59234;DHT22;60776;51.702;7.462;2023-08-20T15:00:48;34.00;50.60
59234;DHT22;60776;51.702;7.462;2023-08-20T15:03:16;34.00;50.80
59234;DHT22;60776;51.702;7.462;2023-08-20T15:05:42;34.00;50.30
59234;DHT22;60776;51.702;7.462;2023-08-20T15:08:10;34.00;50.20
59234;DHT22;60776;51.702;7.462;2023-08-20T15:10:36;33.90;50.30
59234;DHT22;60776;51.702;7.462;2023-08-20T15:13:02;33.80;50.40
59234;DHT22;60776;51.702;7.462;2023-08-20T15:15:29;33.70;50.20
59234;DHT22;60776;51.702;7.462;2023-08-20T15:17:56;33.60;50.50
59234;DHT22;60776;51.702;7.462;2023-08-20T15:20:29;33.50;50.60
59234;DHT22;60776;51.702;7.462;2023-08-20T15:22:57;33.30;50.70
59234;DHT22;60776;51.702;7.462;2023-08-20T15:25:26;33.10;51.70
59234;DHT22;60776;51.702;7.462;2023-08-20T15:27:54;32.80;50.80
59234;DHT22;60776;51.702;7.462;2023-08-20T15:30:19;32.80;51.10
59234;DHT22;60776;51.702;7.462;2023-08-20T15:32:50;32.60;51.60
59234;DHT22;60776;51.702;7.462;2023-08-20T15:35:18;32.30;51.80
59234;DHT22;60776;51.702;7.462;2023-08-20T15:37:44;32.10;52.20
59234;DHT22;60776;51.702;7.462;2023-08-20T15:40:10;32.10;52.20
59234;DHT22;60776;51.702;7.462;2023-08-20T15:42:40;32.10;52.50
59234;DHT22;60776;51.702;7.462;2023-08-20T15:45:06;32.10;52.80